Pintail — WDF5177 — position and weather

sailwx.info

Track history (hours):
 
Tides and Currents Weather Stations Pressure Air Temp Water Temp Dewpoint Dewpoint Depression Visibility Wind Speed Wind Dir Waves Ship Positions

Pintail

Owner: Pintail Marine Services, Inc, Friday Harbor, WA. More information available from US FCC via Universal Licensing System and Coast Guard Vessel Documentation Center.

Last reported at 2015-Jul-02 07:31 UTC. Time now 2015-Jul-02 08:02 UTC.
Position N 48°32' W 122°60'.

Length 19 m.

Type: Towing. MMSI: 367460260.

Date/timePositionNaut miles runAvg speedWind from/ knotsBaromVisibWave heightAir tempDewpointWater temp
2015-Jul-02 07:31N 48°32' W 122°60'0 0.0
2015-Jul-02 06:31N 48°32' W 122°60'0 0.0
2015-Jul-02 05:28N 48°32' W 122°60'0 0.0
2015-Jul-02 04:31N 48°32' W 122°60'0 0.0
2015-Jul-02 03:28N 48°32' W 122°60'0 0.0
2015-Jul-02 02:22N 48°32' W 122°60'0 0.0
2015-Jul-02 01:28N 48°32' W 122°60'0 0.0
2015-Jul-02 00:31N 48°32' W 122°60'0 0.0
2015-Jul-01 23:31N 48°32' W 122°60'0 0.0
2015-Jul-01 22:31N 48°32' W 122°60'0 0.0
2015-Jul-01 21:31N 48°32' W 122°60'0 0.0
2015-Jul-01 20:31N 48°32' W 122°60'0 0.0
2015-Jul-01 19:31N 48°32' W 122°60'0 0.0
2015-Jul-01 18:31N 48°32' W 122°60'0 0.0
2015-Jul-01 17:28N 48°32' W 122°60'0 0.0
2015-Jul-01 16:31N 48°32' W 122°60'0 0.0
2015-Jul-01 15:31N 48°32' W 122°60'0 0.0
2015-Jul-01 14:31N 48°32' W 122°60'0 0.0
2015-Jul-01 13:31N 48°32' W 122°60'0 0.0
2015-Jul-01 12:31N 48°32' W 122°60'0 0.0
2015-Jul-01 11:31N 48°32' W 122°60'0 0.0
2015-Jul-01 10:31N 48°32' W 122°60'0 0.0
2015-Jul-01 09:31N 48°32' W 122°60'0 0.0
2015-Jul-01 08:31N 48°32' W 122°60'0 0.0
2015-Jul-01 07:32N 48°32' W 122°60'0 0.0
2015-Jul-01 06:31N 48°32' W 122°60'0 0.0
2015-Jul-01 05:32N 48°32' W 122°60'0 0.0
2015-Jul-01 04:29N 48°32' W 122°60'0 0.0
2015-Jul-01 03:32N 48°32' W 122°60'0 0.0
2015-Jul-01 02:32N 48°32' W 122°60'0 0.0
2015-Jul-01 01:32N 48°32' W 122°60'0 0.0
2015-Jul-01 00:26N 48°32' W 122°60'0 0.0
2015-Jun-30 23:32N 48°32' W 122°60'0 0.0
2015-Jun-30 22:32N 48°32' W 122°60'0 0.0
2015-Jun-30 21:32N 48°32' W 122°60'0 0.4
2015-Jun-30 20:32N 48°32' W 123°00'0 0.4
2015-Jun-30 19:31N 48°32' W 122°60'0 0.0
2015-Jun-30 18:31N 48°32' W 122°60'0 0.0
2015-Jun-30 17:25N 48°32' W 122°60'0 0.0
2015-Jun-30 16:31N 48°32' W 122°60'0 0.0
2015-Jun-30 15:33N 48°32' W 122°60'0 0.0
2015-Jun-30 14:32N 48°32' W 122°60'0 0.0
2015-Jun-30 13:32N 48°32' W 122°60'0 0.0
2015-Jun-30 12:32N 48°32' W 122°60'0 0.0
2015-Jun-30 11:32N 48°32' W 122°60'0 0.0
2015-Jun-30 10:32N 48°32' W 122°60'0 0.0
2015-Jun-30 09:33N 48°32' W 122°60'0 0.0
2015-Jun-30 08:29N 48°32' W 122°60'0 0.0
2015-Jun-30 07:32N 48°32' W 122°60'0 0.0
2015-Jun-30 06:32N 48°32' W 122°60'0 0.0
2015-Jun-30 05:32N 48°32' W 122°60'0 0.0
2015-Jun-30 04:32N 48°32' W 122°60'0 0.0
2015-Jun-30 03:32N 48°32' W 122°60'0 0.0
2015-Jun-30 02:32N 48°32' W 122°60'0 0.0
2015-Jun-30 01:26N 48°32' W 122°60'0 0.0
2015-Jun-30 00:29N 48°32' W 122°60'0 0.0
2015-Jun-29 23:31N 48°32' W 122°60'0 0.0
2015-Jun-29 22:31N 48°32' W 122°60'0 0.0
2015-Jun-29 21:31N 48°32' W 122°60'0 0.0
2015-Jun-29 20:31N 48°32' W 122°60'3 2.8
2015-Jun-29 19:33N 48°33' W 122°56'5 4.7
2015-Jun-29 18:33N 48°32' W 122°49'7 6.5
2015-Jun-29 17:31N 48°32' W 122°39'1 0.8
2015-Jun-29 16:33N 48°31' W 122°38'6 6.1
2015-Jun-29 15:31N 48°32' W 122°48'6 5.8
2015-Jun-29 14:32N 48°33' W 122°56'3 2.8
2015-Jun-29 13:32N 48°32' W 122°60'0 0.0
2015-Jun-29 12:29N 48°32' W 122°60'0 0.0
2015-Jun-29 11:32N 48°32' W 122°60'0 0.0
2015-Jun-29 10:32N 48°32' W 122°60'0 0.0
2015-Jun-29 09:32N 48°32' W 122°60'0 0.0
2015-Jun-29 08:32N 48°32' W 122°60'0 0.0
2015-Jun-29 07:32N 48°32' W 122°60'0 0.0
2015-Jun-29 06:32N 48°32' W 122°60'0 0.0
2015-Jun-29 05:32N 48°32' W 122°60'0 0.0
2015-Jun-29 04:32N 48°32' W 122°60'0 0.0
2015-Jun-29 03:32N 48°32' W 122°60'0 0.0
2015-Jun-29 02:32N 48°32' W 122°60'0 0.0
2015-Jun-29 01:32N 48°32' W 122°60'0 0.0
2015-Jun-29 00:32N 48°32' W 122°60'0 0.0
2015-Jun-28 23:32N 48°32' W 122°60'0 0.0
2015-Jun-28 22:29N 48°32' W 122°60'0 0.0
2015-Jun-28 21:32N 48°32' W 122°60'0 0.0
2015-Jun-28 20:32N 48°32' W 122°60'0 0.0
2015-Jun-28 19:32N 48°32' W 122°60'0 0.0
2015-Jun-28 18:32N 48°32' W 122°60'0 0.0
2015-Jun-28 17:32N 48°32' W 122°60'0 0.0
2015-Jun-28 16:32N 48°32' W 122°60'0 0.0
2015-Jun-28 15:32N 48°32' W 122°60'0 0.0
2015-Jun-28 14:29N 48°32' W 122°60'0 0.0
2015-Jun-28 13:32N 48°32' W 122°60'0 0.0
2015-Jun-28 12:32N 48°32' W 122°60'0 0.0
2015-Jun-28 11:29N 48°32' W 122°60'0 0.0
2015-Jun-28 10:29N 48°32' W 122°60'0 0.0
2015-Jun-28 09:32N 48°32' W 122°60'0 0.0
2015-Jun-28 08:32N 48°32' W 122°60'0 0.0
2015-Jun-28 07:32N 48°32' W 122°60'0 0.0
2015-Jun-28 06:32N 48°32' W 122°60'0 0.0
2015-Jun-28 05:32N 48°32' W 122°60'0 0.0
2015-Jun-28 04:32N 48°32' W 122°60'0 0.0
2015-Jun-28 03:32N 48°32' W 122°60'0 0.0
2015-Jun-28 02:32N 48°32' W 122°60'0 0.0
2015-Jun-28 01:32N 48°32' W 122°60'0 0.0
2015-Jun-28 00:32N 48°32' W 122°60'0 0.0
2015-Jun-27 23:29N 48°32' W 122°60'0 0.0
2015-Jun-27 22:32N 48°32' W 122°60'0 0.0
2015-Jun-27 21:32N 48°32' W 122°60'0 0.1
2015-Jun-27 20:32N 48°32' W 123°00'8 0.5
2015-Jun-27 04:33N 48°36' W 123°09'8 0.7
2015-Jun-26 17:30N 48°32' W 122°60'0 0.0
2015-Jun-26 16:33N 48°32' W 122°60'0 0.0
2015-Jun-26 15:33N 48°32' W 122°60'0 0.0
2015-Jun-26 14:33N 48°32' W 122°60'0 0.0
2015-Jun-26 13:29N 48°32' W 122°60'0 0.0
2015-Jun-26 12:32N 48°32' W 122°60'0 0.0
2015-Jun-26 11:32N 48°32' W 122°60'0 0.0
2015-Jun-26 10:32N 48°32' W 122°60'0 0.0
2015-Jun-26 09:32N 48°32' W 122°60'0 0.0
2015-Jun-26 08:32N 48°32' W 122°60'0 0.0
2015-Jun-26 07:29N 48°32' W 122°60'0 0.0
2015-Jun-26 06:32N 48°32' W 122°60'0 0.0
2015-Jun-26 05:32N 48°32' W 122°60'0 0.0
2015-Jun-26 04:32N 48°32' W 122°60'0 0.0
2015-Jun-26 03:32N 48°32' W 122°60'0 0.0
2015-Jun-26 02:29N 48°32' W 122°60'0 0.0
2015-Jun-26 01:32N 48°32' W 122°60'0 0.0
2015-Jun-26 00:29N 48°32' W 122°60'0 0.4
2015-Jun-25 23:33N 48°32' W 122°60'6 5.9
2015-Jun-25 22:33N 48°33' W 122°51'7 6.4
2015-Jun-25 21:28N 48°32' W 122°41'3 2.9
2015-Jun-25 20:23N 48°31' W 122°36'5 5.2
2015-Jun-25 19:30N 48°32' W 122°43'6 5.9
2015-Jun-25 18:33N 48°33' W 122°51'6 5.5
2015-Jun-25 17:33N 48°32' W 122°59'1 0.7
2015-Jun-25 16:32N 48°32' W 122°60'0 0.0
2015-Jun-25 15:32N 48°32' W 122°60'0 0.0
2015-Jun-25 14:29N 48°32' W 122°60'0 0.0
2015-Jun-25 13:32N 48°32' W 122°60'0 0.0
2015-Jun-25 12:32N 48°32' W 122°60'0 0.0
2015-Jun-25 11:24N 48°32' W 122°60'0 0.0
2015-Jun-25 10:33N 48°32' W 122°60'0 0.0
2015-Jun-25 09:33N 48°32' W 122°60'0 0.0
2015-Jun-25 08:32N 48°32' W 122°60'0 0.0
2015-Jun-25 07:32N 48°32' W 122°60'0 0.0
2015-Jun-25 06:32N 48°32' W 122°60'0 0.0
2015-Jun-25 05:32N 48°32' W 122°60'0 0.0
2015-Jun-25 04:32N 48°32' W 122°60'0 0.0
2015-Jun-25 03:32N 48°32' W 122°60'0 0.0
2015-Jun-25 02:29N 48°32' W 122°60'0 0.0
2015-Jun-25 01:32N 48°32' W 122°60'0 0.0
2015-Jun-25 00:20N 48°32' W 122°60'0 0.0
2015-Jun-24 23:32N 48°32' W 122°60'0 0.0
2015-Jun-24 22:32N 48°32' W 122°60'0 0.0
2015-Jun-24 21:29N 48°32' W 122°60'0 0.0
2015-Jun-24 20:32N 48°32' W 122°60'3 2.6
2015-Jun-24 19:33N 48°33' W 122°57'5 5.3
2015-Jun-24 18:32N 48°32' W 122°49'7 6.3
2015-Jun-24 17:27N 48°31' W 122°38'8 4.3
2015-Jun-24 15:33N 48°33' W 122°50'6 5.6
2015-Jun-24 14:33N 48°32' W 122°59'1 1.0
2015-Jun-24 13:32N 48°32' W 122°60'0 0.0
2015-Jun-24 12:23N 48°32' W 122°60'0 0.0
2015-Jun-24 11:29N 48°32' W 122°60'0 0.0
2015-Jun-24 10:32N 48°32' W 122°60'0 0.0
2015-Jun-24 09:32N 48°32' W 122°60'0 0.0
2015-Jun-24 08:32N 48°32' W 122°60'0 0.0
2015-Jun-24 07:32N 48°32' W 122°60'0 0.0
2015-Jun-24 06:32N 48°32' W 122°60'0 0.0
2015-Jun-24 05:29N 48°32' W 122°60'0 0.0
2015-Jun-24 04:32N 48°32' W 122°60'0 0.0
2015-Jun-24 03:29N 48°32' W 122°60'0 0.0
2015-Jun-24 02:32N 48°32' W 122°60'0 0.0
2015-Jun-24 01:32N 48°32' W 122°60'0 0.0
2015-Jun-24 00:32N 48°32' W 122°60'0 0.0
2015-Jun-23 23:32N 48°32' W 122°60'0 0.0
2015-Jun-23 22:20N 48°32' W 122°60'0 0.0
2015-Jun-23 21:29N 48°32' W 122°60'0 0.1
2015-Jun-23 20:24N 48°32' W 123°00'0 0.1
2015-Jun-23 19:32N 48°32' W 122°60'0 0.0
2015-Jun-23 19:05N 48°32' W 122°60'3 0.1
2015-Jun-22 19:33N 48°33' W 122°56'5 5.0
2015-Jun-22 18:33N 48°32' W 122°49'7 6.8
2015-Jun-22 17:31N 48°32' W 122°38'3 2.6
2015-Jun-22 16:31N 48°32' W 122°42'6 6.2
2015-Jun-22 15:33N 48°33' W 122°51'6 5.7
2015-Jun-22 14:33N 48°32' W 122°59'1 0.7
2015-Jun-22 13:29N 48°32' W 122°60'0 0.0
2015-Jun-22 12:29N 48°32' W 122°60'0 0.0
2015-Jun-22 11:29N 48°32' W 122°60'0 0.0
2015-Jun-22 10:32N 48°32' W 122°60'0 0.0
2015-Jun-22 09:32N 48°32' W 122°60'0 0.0
2015-Jun-22 08:32N 48°32' W 122°60'  
Track history (hours):
 
Tides and Currents Weather Stations Pressure Air Temp Water Temp Dewpoint Dewpoint Depression Visibility Wind Speed Wind Dir Waves Ship Positions

Pintail

Owner: Pintail Marine Services, Inc, Friday Harbor, WA. More information available from US FCC via Universal Licensing System and Coast Guard Vessel Documentation Center.

Last reported at 2015-Jul-02 07:31 UTC. Time now 2015-Jul-02 08:02 UTC.
Position N 48°32' W 122°60'.

Length 19 m.

Type: Towing. MMSI: 367460260.

Date/timePositionNaut miles runAvg speedWind from/ knotsBaromVisibWave heightAir tempDewpointWater temp
2015-Jul-02 07:31N 48°32' W 122°60'0 0.0
2015-Jul-02 06:31N 48°32' W 122°60'0 0.0
2015-Jul-02 05:28N 48°32' W 122°60'0 0.0
2015-Jul-02 04:31N 48°32' W 122°60'0 0.0
2015-Jul-02 03:28N 48°32' W 122°60'0 0.0
2015-Jul-02 02:22N 48°32' W 122°60'0 0.0
2015-Jul-02 01:28N 48°32' W 122°60'0 0.0
2015-Jul-02 00:31N 48°32' W 122°60'0 0.0
2015-Jul-01 23:31N 48°32' W 122°60'0 0.0
2015-Jul-01 22:31N 48°32' W 122°60'0 0.0
2015-Jul-01 21:31N 48°32' W 122°60'0 0.0
2015-Jul-01 20:31N 48°32' W 122°60'0 0.0
2015-Jul-01 19:31N 48°32' W 122°60'0 0.0
2015-Jul-01 18:31N 48°32' W 122°60'0 0.0
2015-Jul-01 17:28N 48°32' W 122°60'0 0.0
2015-Jul-01 16:31N 48°32' W 122°60'0 0.0
2015-Jul-01 15:31N 48°32' W 122°60'0 0.0
2015-Jul-01 14:31N 48°32' W 122°60'0 0.0
2015-Jul-01 13:31N 48°32' W 122°60'0 0.0
2015-Jul-01 12:31N 48°32' W 122°60'0 0.0
2015-Jul-01 11:31N 48°32' W 122°60'0 0.0
2015-Jul-01 10:31N 48°32' W 122°60'0 0.0
2015-Jul-01 09:31N 48°32' W 122°60'0 0.0
2015-Jul-01 08:31N 48°32' W 122°60'0 0.0
2015-Jul-01 07:32N 48°32' W 122°60'0 0.0
2015-Jul-01 06:31N 48°32' W 122°60'0 0.0
2015-Jul-01 05:32N 48°32' W 122°60'0 0.0
2015-Jul-01 04:29N 48°32' W 122°60'0 0.0
2015-Jul-01 03:32N 48°32' W 122°60'0 0.0
2015-Jul-01 02:32N 48°32' W 122°60'0 0.0
2015-Jul-01 01:32N 48°32' W 122°60'0 0.0
2015-Jul-01 00:26N 48°32' W 122°60'0 0.0
2015-Jun-30 23:32N 48°32' W 122°60'0 0.0
2015-Jun-30 22:32N 48°32' W 122°60'0 0.0
2015-Jun-30 21:32N 48°32' W 122°60'0 0.4
2015-Jun-30 20:32N 48°32' W 123°00'0 0.4
2015-Jun-30 19:31N 48°32' W 122°60'0 0.0
2015-Jun-30 18:31N 48°32' W 122°60'0 0.0
2015-Jun-30 17:25N 48°32' W 122°60'0 0.0
2015-Jun-30 16:31N 48°32' W 122°60'0 0.0
2015-Jun-30 15:33N 48°32' W 122°60'0 0.0
2015-Jun-30 14:32N 48°32' W 122°60'0 0.0
2015-Jun-30 13:32N 48°32' W 122°60'0 0.0
2015-Jun-30 12:32N 48°32' W 122°60'0 0.0
2015-Jun-30 11:32N 48°32' W 122°60'0 0.0
2015-Jun-30 10:32N 48°32' W 122°60'0 0.0
2015-Jun-30 09:33N 48°32' W 122°60'0 0.0
2015-Jun-30 08:29N 48°32' W 122°60'0 0.0
2015-Jun-30 07:32N 48°32' W 122°60'0 0.0
2015-Jun-30 06:32N 48°32' W 122°60'0 0.0
2015-Jun-30 05:32N 48°32' W 122°60'0 0.0
2015-Jun-30 04:32N 48°32' W 122°60'0 0.0
2015-Jun-30 03:32N 48°32' W 122°60'0 0.0
2015-Jun-30 02:32N 48°32' W 122°60'0 0.0
2015-Jun-30 01:26N 48°32' W 122°60'0 0.0
2015-Jun-30 00:29N 48°32' W 122°60'0 0.0
2015-Jun-29 23:31N 48°32' W 122°60'0 0.0
2015-Jun-29 22:31N 48°32' W 122°60'0 0.0
2015-Jun-29 21:31N 48°32' W 122°60'0 0.0
2015-Jun-29 20:31N 48°32' W 122°60'3 2.8
2015-Jun-29 19:33N 48°33' W 122°56'5 4.7
2015-Jun-29 18:33N 48°32' W 122°49'7 6.5
2015-Jun-29 17:31N 48°32' W 122°39'1 0.8
2015-Jun-29 16:33N 48°31' W 122°38'6 6.1
2015-Jun-29 15:31N 48°32' W 122°48'6 5.8
2015-Jun-29 14:32N 48°33' W 122°56'3 2.8
2015-Jun-29 13:32N 48°32' W 122°60'0 0.0
2015-Jun-29 12:29N 48°32' W 122°60'0 0.0
2015-Jun-29 11:32N 48°32' W 122°60'0 0.0
2015-Jun-29 10:32N 48°32' W 122°60'0 0.0
2015-Jun-29 09:32N 48°32' W 122°60'0 0.0
2015-Jun-29 08:32N 48°32' W 122°60'0 0.0
2015-Jun-29 07:32N 48°32' W 122°60'0 0.0
2015-Jun-29 06:32N 48°32' W 122°60'0 0.0
2015-Jun-29 05:32N 48°32' W 122°60'0 0.0
2015-Jun-29 04:32N 48°32' W 122°60'0 0.0
2015-Jun-29 03:32N 48°32' W 122°60'0 0.0
2015-Jun-29 02:32N 48°32' W 122°60'0 0.0
2015-Jun-29 01:32N 48°32' W 122°60'0 0.0
2015-Jun-29 00:32N 48°32' W 122°60'0 0.0
2015-Jun-28 23:32N 48°32' W 122°60'0 0.0
2015-Jun-28 22:29N 48°32' W 122°60'0 0.0
2015-Jun-28 21:32N 48°32' W 122°60'0 0.0
2015-Jun-28 20:32N 48°32' W 122°60'0 0.0
2015-Jun-28 19:32N 48°32' W 122°60'0 0.0
2015-Jun-28 18:32N 48°32' W 122°60'0 0.0
2015-Jun-28 17:32N 48°32' W 122°60'0 0.0
2015-Jun-28 16:32N 48°32' W 122°60'0 0.0
2015-Jun-28 15:32N 48°32' W 122°60'0 0.0
2015-Jun-28 14:29N 48°32' W 122°60'0 0.0
2015-Jun-28 13:32N 48°32' W 122°60'0 0.0
2015-Jun-28 12:32N 48°32' W 122°60'0 0.0
2015-Jun-28 11:29N 48°32' W 122°60'0 0.0
2015-Jun-28 10:29N 48°32' W 122°60'0 0.0
2015-Jun-28 09:32N 48°32' W 122°60'0 0.0
2015-Jun-28 08:32N 48°32' W 122°60'0 0.0
2015-Jun-28 07:32N 48°32' W 122°60'0 0.0
2015-Jun-28 06:32N 48°32' W 122°60'0 0.0
2015-Jun-28 05:32N 48°32' W 122°60'0 0.0
2015-Jun-28 04:32N 48°32' W 122°60'0 0.0
2015-Jun-28 03:32N 48°32' W 122°60'0 0.0
2015-Jun-28 02:32N 48°32' W 122°60'0 0.0
2015-Jun-28 01:32N 48°32' W 122°60'0 0.0
2015-Jun-28 00:32N 48°32' W 122°60'0 0.0
2015-Jun-27 23:29N 48°32' W 122°60'0 0.0
2015-Jun-27 22:32N 48°32' W 122°60'0 0.0
2015-Jun-27 21:32N 48°32' W 122°60'0 0.1
2015-Jun-27 20:32N 48°32' W 123°00'8 0.5
2015-Jun-27 04:33N 48°36' W 123°09'8 0.7
2015-Jun-26 17:30N 48°32' W 122°60'0 0.0
2015-Jun-26 16:33N 48°32' W 122°60'0 0.0
2015-Jun-26 15:33N 48°32' W 122°60'0 0.0
2015-Jun-26 14:33N 48°32' W 122°60'0 0.0
2015-Jun-26 13:29N 48°32' W 122°60'0 0.0
2015-Jun-26 12:32N 48°32' W 122°60'0 0.0
2015-Jun-26 11:32N 48°32' W 122°60'0 0.0
2015-Jun-26 10:32N 48°32' W 122°60'0 0.0
2015-Jun-26 09:32N 48°32' W 122°60'0 0.0
2015-Jun-26 08:32N 48°32' W 122°60'0 0.0
2015-Jun-26 07:29N 48°32' W 122°60'0 0.0
2015-Jun-26 06:32N 48°32' W 122°60'0 0.0
2015-Jun-26 05:32N 48°32' W 122°60'0 0.0
2015-Jun-26 04:32N 48°32' W 122°60'0 0.0
2015-Jun-26 03:32N 48°32' W 122°60'0 0.0
2015-Jun-26 02:29N 48°32' W 122°60'0 0.0
2015-Jun-26 01:32N 48°32' W 122°60'0 0.0
2015-Jun-26 00:29N 48°32' W 122°60'0 0.4
2015-Jun-25 23:33N 48°32' W 122°60'6 5.9
2015-Jun-25 22:33N 48°33' W 122°51'7 6.4
2015-Jun-25 21:28N 48°32' W 122°41'3 2.9
2015-Jun-25 20:23N 48°31' W 122°36'5 5.2
2015-Jun-25 19:30N 48°32' W 122°43'6 5.9
2015-Jun-25 18:33N 48°33' W 122°51'6 5.5
2015-Jun-25 17:33N 48°32' W 122°59'1 0.7
2015-Jun-25 16:32N 48°32' W 122°60'0 0.0
2015-Jun-25 15:32N 48°32' W 122°60'0 0.0
2015-Jun-25 14:29N 48°32' W 122°60'0 0.0
2015-Jun-25 13:32N 48°32' W 122°60'0 0.0
2015-Jun-25 12:32N 48°32' W 122°60'0 0.0
2015-Jun-25 11:24N 48°32' W 122°60'0 0.0
2015-Jun-25 10:33N 48°32' W 122°60'0 0.0
2015-Jun-25 09:33N 48°32' W 122°60'0 0.0
2015-Jun-25 08:32N 48°32' W 122°60'0 0.0
2015-Jun-25 07:32N 48°32' W 122°60'0 0.0
2015-Jun-25 06:32N 48°32' W 122°60'0 0.0
2015-Jun-25 05:32N 48°32' W 122°60'0 0.0
2015-Jun-25 04:32N 48°32' W 122°60'0 0.0
2015-Jun-25 03:32N 48°32' W 122°60'0 0.0
2015-Jun-25 02:29N 48°32' W 122°60'0 0.0
2015-Jun-25 01:32N 48°32' W 122°60'0 0.0
2015-Jun-25 00:20N 48°32' W 122°60'0 0.0
2015-Jun-24 23:32N 48°32' W 122°60'0 0.0
2015-Jun-24 22:32N 48°32' W 122°60'0 0.0
2015-Jun-24 21:29N 48°32' W 122°60'0 0.0
2015-Jun-24 20:32N 48°32' W 122°60'3 2.6
2015-Jun-24 19:33N 48°33' W 122°57'5 5.3
2015-Jun-24 18:32N 48°32' W 122°49'7 6.3
2015-Jun-24 17:27N 48°31' W 122°38'8 4.3
2015-Jun-24 15:33N 48°33' W 122°50'6 5.6
2015-Jun-24 14:33N 48°32' W 122°59'1 1.0
2015-Jun-24 13:32N 48°32' W 122°60'0 0.0
2015-Jun-24 12:23N 48°32' W 122°60'0 0.0
2015-Jun-24 11:29N 48°32' W 122°60'0 0.0
2015-Jun-24 10:32N 48°32' W 122°60'0 0.0
2015-Jun-24 09:32N 48°32' W 122°60'0 0.0
2015-Jun-24 08:32N 48°32' W 122°60'0 0.0
2015-Jun-24 07:32N 48°32' W 122°60'0 0.0
2015-Jun-24 06:32N 48°32' W 122°60'0 0.0
2015-Jun-24 05:29N 48°32' W 122°60'0 0.0
2015-Jun-24 04:32N 48°32' W 122°60'0 0.0
2015-Jun-24 03:29N 48°32' W 122°60'0 0.0
2015-Jun-24 02:32N 48°32' W 122°60'0 0.0
2015-Jun-24 01:32N 48°32' W 122°60'0 0.0
2015-Jun-24 00:32N 48°32' W 122°60'0 0.0
2015-Jun-23 23:32N 48°32' W 122°60'0 0.0
2015-Jun-23 22:20N 48°32' W 122°60'0 0.0
2015-Jun-23 21:29N 48°32' W 122°60'0 0.1
2015-Jun-23 20:24N 48°32' W 123°00'0 0.1
2015-Jun-23 19:32N 48°32' W 122°60'0 0.0
2015-Jun-23 19:05N 48°32' W 122°60'3 0.1
2015-Jun-22 19:33N 48°33' W 122°56'5 5.0
2015-Jun-22 18:33N 48°32' W 122°49'7 6.8
2015-Jun-22 17:31N 48°32' W 122°38'3 2.6
2015-Jun-22 16:31N 48°32' W 122°42'6 6.2
2015-Jun-22 15:33N 48°33' W 122°51'6 5.7
2015-Jun-22 14:33N 48°32' W 122°59'1 0.7
2015-Jun-22 13:29N 48°32' W 122°60'0 0.0
2015-Jun-22 12:29N 48°32' W 122°60'0 0.0
2015-Jun-22 11:29N 48°32' W 122°60'0 0.0
2015-Jun-22 10:32N 48°32' W 122°60'0 0.0
2015-Jun-22 09:32N 48°32' W 122°60'0 0.0
2015-Jun-22 08:32N 48°32' W 122°60'  

Dump ship's entire track history